createdAt,value
2023-02-09T00:08:17.358Z,4.50
2023-02-09T00:18:19.908Z,4.75
2023-02-09T00:28:21.532Z,3.83
2023-02-09T00:38:23.013Z,3.47
2023-02-09T00:48:24.875Z,3.35
2023-02-09T00:58:26.325Z,3.60
2023-02-09T01:08:27.813Z,4.27
2023-02-09T01:18:29.248Z,3.80
2023-02-09T01:28:30.772Z,3.90
2023-02-09T01:38:32.222Z,3.83
2023-02-09T01:48:33.678Z,4.43
2023-02-09T01:58:35.525Z,4.10
2023-02-09T02:08:43.412Z,4.47
2023-02-09T02:19:01.638Z,4.57
2023-02-09T02:29:03.093Z,4.90
2023-02-09T02:39:50.850Z,4.47
2023-02-09T02:49:56.798Z,4.27
2023-02-09T03:00:17.087Z,3.45
2023-02-09T03:10:31.429Z,4.63
2023-02-09T03:20:49.994Z,4.33
2023-02-09T03:30:52.662Z,4.32
2023-02-09T03:40:54.743Z,5.17
2023-02-09T03:50:56.250Z,4.87
2023-02-09T04:01:05.951Z,4.72
2023-02-09T04:11:07.523Z,4.93
2023-02-09T04:21:08.991Z,4.07
2023-02-09T04:31:11.152Z,5.13
2023-02-09T04:41:12.722Z,4.37
2023-02-09T04:51:14.482Z,5.50
2023-02-09T05:01:20.819Z,5.57
2023-02-09T05:11:23.374Z,4.77
2023-02-09T05:21:26.202Z,5.43
2023-02-09T05:31:27.751Z,4.80
2023-02-09T05:41:29.312Z,5.70
2023-02-09T05:51:30.732Z,5.65
2023-02-09T06:01:32.632Z,5.40
2023-02-09T06:11:34.156Z,5.10
2023-02-09T06:21:35.982Z,6.60
2023-02-09T06:31:37.624Z,5.67
2023-02-09T06:41:39.338Z,5.87
2023-02-09T06:51:40.912Z,6.00
2023-02-09T07:01:42.728Z,6.83
2023-02-09T07:11:44.188Z,6.77
2023-02-09T07:21:45.653Z,7.07
2023-02-09T07:31:47.184Z,6.23
2023-02-09T07:41:48.727Z,5.90
2023-02-09T07:51:50.249Z,7.50
2023-02-09T08:01:51.740Z,6.37
2023-02-09T08:11:55.542Z,6.43
2023-02-09T08:21:57.347Z,6.60
2023-02-09T08:31:58.849Z,7.13
2023-02-09T08:42:00.300Z,6.03
2023-02-09T08:52:01.910Z,6.60
2023-02-09T09:02:03.443Z,7.30
2023-02-09T09:12:05.073Z,6.20
2023-02-09T09:22:06.530Z,7.07
2023-02-09T09:32:11.158Z,7.20
2023-02-09T09:42:24.528Z,6.93
2023-02-09T09:52:31.963Z,6.10
2023-02-09T10:02:34.534Z,6.77
2023-02-09T10:12:43.888Z,7.40
2023-02-09T10:22:45.531Z,8.40
2023-02-09T10:32:47.734Z,6.30
2023-02-09T10:43:03.315Z,7.27
2023-02-09T10:53:20.613Z,7.70
2023-02-09T11:03:24.393Z,7.60
2023-02-09T11:13:27.051Z,7.90
2023-02-09T11:23:38.009Z,8.48
2023-02-09T11:33:48.059Z,6.67
2023-02-09T11:43:51.677Z,7.80
2023-02-09T11:54:16.758Z,7.28
2023-02-09T12:04:24.668Z,8.20
2023-02-09T12:14:44.595Z,7.90
2023-02-09T12:25:05.120Z,8.10
2023-02-09T12:35:27.148Z,9.00
2023-02-09T12:45:40.869Z,7.75
2023-02-09T12:56:17.026Z,8.97
2023-02-09T13:06:44.117Z,7.95
2023-02-09T13:17:03.591Z,9.83
2023-02-09T13:27:17.544Z,8.10
2023-02-09T13:37:37.778Z,8.07
2023-02-09T13:47:42.726Z,8.57
2023-02-09T13:58:06.138Z,9.73
2023-02-09T14:08:09.219Z,8.17
2023-02-09T14:18:41.198Z,8.33
2023-02-09T14:28:51.812Z,8.18
2023-02-09T14:39:09.821Z,9.17
2023-02-09T14:49:11.336Z,9.73
2023-02-09T14:59:16.495Z,9.60
2023-02-09T15:09:22.702Z,8.80
2023-02-09T15:19:24.246Z,8.82
